Relevés horaires Koksijde (Belgique)


Relevés horaires à Koksijde - Dimanche 28 Févr. 2016
Heure UTC1 Température [°C] Vent [km/h] Hum. [%] Pres.4 [hPa] Visi. [Km] Nébu. [octa] Préc.5 [mm] Cond.
2m. Res. Ros. Dir.2 Vit. Moy. Raf.3
23:00 3.5 0.2 -1.2 NE 13.0 14.8 20.4 71 1023.7(0.5/3h) 20 1/8 -- --
22:00 3.7 0.5 -2.0 NE 13.0 13.0 20.4 66 1023.7(1.4/3h) 20 2/8 -- --
21:00 3.5 0.2 -2.3 NE 13.0 16.7 22.2 66 1023.7(2.2/3h) 25 2/8 -- --
20:00 3.9 0.7 -2.4 NE 13.0 13.0 22.2 63 1023.1(2.3/3h) 25 7/8 -- --
19:00 3.9 1.1 -1.8 ENE 11.1 16.7 22.2 66 1022.2(2.1/3h) 25 7/8 -- --
18:00 5.1 1.6 -0.2 NE 16.7 20.4 27.8 69 1021.5(1.5/3h) 25 7/8 0/0h
--
17:00 5.0 1.3 -- NE 18.5 20.4 27.8 -- 1020.7(1.0/3h) 25 7/8 -- --
16:00 5.5 1.7 0.3 NE 20.4 20.4 27.8 69 1020.1(0.4/3h) 25 7/8 -- --
15:00 5.9 2.4 0.4 NE 18.5 20.4 27.8 68 1019.8(0.5/3h) 25 7/8 -- --
14:00 5.7 2.1 -0.1 NE 18.5 18.5 27.8 66 1019.7(0.4/3h) 25 7/8 -- --
13:00 5.5 1.9 -1.4 NE 18.5 20.4 27.8 61 1019.7(0.2/3h) 25 7/8 -- --
12:00 5.6 2 -1.3 NE 18.5 22.2 27.8 61 1019.3(0.1/3h) 25 7/8 0/0h
--
11:00 5.6 2.2 -2.0 NE 16.7 18.5 24.1 58 1019.2(0.5/3h) 25 7/8 -- --
10:00 4.4 1 -2.9 NE 14.8 14.8 20.4 59 1019.3(2.0/3h) 25 7/8 -- --
09:00 3.5 -0.1 -2.8 NE 14.8 -- -- 63 1019.2(2.4/3h) 25 7/8 -- --
08:00 2.7 -0.3 -2.8 NE 11.1 13.0 18.5 67 1018.7(2.3/3h) 25 7/8 -- --
07:00 2.2 -1.3 -4.4 NE 13.0 13.0 16.7 62 1017.3(1.5/3h) 25 7/8 -- --
06:00 2.0 -1.2 -3.9 NE 11.1 13.0 20.4 65 1016.8(1.4/3h) 20 7/8 0/0h
--
05:00 1.7 -1.5 -3.5 NE 11.1 11.1 16.7 68 1016.5(1.5/3h) 20 7/8 -- --
04:00 1.8 -1 -3.3 ENE 9.3 11.1 16.7 69 1015.8(1.3/3h) 20 7/8 -- --
03:00 2.4 -0.7 -3.6 NE 11.1 -- 20.4 64 1015.3(1.1/3h) 20 7/8 -- --
02:00 2.5 -1 -3.5 NE 13.0 13.0 20.4 64 1014.8(0.6/3h) 20 7/8 -- --
01:00 2.4 -0.7 -3.1 NE 11.1 11.1 14.8 67 1014.5(0.4/3h) 20 7/8 -- --
00:00 2.4 -0.7 -3.6 NE 11.1 -- 16.7 64 1014.2(0.9/3h) 20 7/8 0/0h
--

1 Coordinated Universal Time. Actuellement il est 02:00 locale et 00:00 UTC.

2 Le vent souffle depuis la direction indiquée vers la direction oposée.

3 Les rafales max. sont disponible 40 min après l'heure du relevé.

4 Pour les stations d'altitude (plus de 600m) le géopotentiel du niveau le plus proche de la pression obligatoire est indiqué.

5 Les stations disposant d'un diffuseur peuvent indiquer "trace". Cela signifie que des précipitations ont touchés le sol mais que la quantité est inférieure à 0.1 mm.

Récapitulatif de la journée
Température [°C] Vent [km/h] Ensoleillement4 [h] Precipitations totale5 [mm] Pression [Hpa]
Min1 Max.2 Moy.3 Max. Min Max.
1.6 6.1 16 27.8 0 h 0 min 0 1014.2 1023.7

1 Température minimale relevée entre 18:00 UTC la veille et 18:00 UTC le jour donné.

2 Température maximale relevée entre 06:00 UTC le jour donné et 06:00 UTC le lendemain.

3 Vent moyen de la journée basé sur les relevés horaires.

4 Ensoleillement en heures relevé entre 06:00 UTC la veille et 06:00 UTC le jour donné.

5 Précipitations totales tombées entre 06:00 UTC la jour donné et 06:00 UTC le lendemain.

Graphiques horaires